Aviation Digital Data Service (ADDS)

Output produced by METARs form (0406 UTC 24 January 2019)
found at http://www.aviationweather.gov/metar/data/
 
Forecast for: TNCC (HATO AIR CURACAO, VI)
Text: TAF TNCC 240400Z 2406/2506 10015KT 9999 SCT018
Forecast period: 0600 UTC 24 January 2019 to 0600 UTC 25 January 2019
Forecast type: FROM: standard forecast or significant change
Winds: from the E (100 degrees) at 17 MPH (15 knots; 7.7 m/s)
Visibility: 6 or more miles 10+ km)
Ceiling: at least 12,000 feet AGL
Clouds: scattered clouds at 1800 feet AGL
Weather: no significant weather forecast for this period
Text: TEMPO 2408/2416 BKN014
Forecast period: 0800 to 1600 UTC 24 January 2019
Forecast type: TEMPORARY: The following changes expected for less than half the time period
Visibility: missing
Ceiling: 1400 feet AGL
Clouds: broken clouds at 1400 feet AGL
Weather: no significant weather forecast for this period